sensor_id;sensor_type;location;lat;lon;timestamp;P1;durP1;ratioP1;P2;durP2;ratioP2
13432;SDS011;6789;47.678;9.158;2023-11-19T00:37:10;1.30;;;1.20;;
13432;SDS011;6789;47.678;9.158;2023-11-19T01:05:09;2.30;;;1.30;;
13432;SDS011;6789;47.678;9.158;2023-11-19T01:21:03;1.83;;;1.30;;
13432;SDS011;6789;47.678;9.158;2023-11-19T02:41:58;2.53;;;2.00;;
13432;SDS011;6789;47.678;9.158;2023-11-19T02:53:03;2.67;;;1.60;;
13432;SDS011;6789;47.678;9.158;2023-11-19T02:58:09;2.30;;;1.60;;
13432;SDS011;6789;47.678;9.158;2023-11-19T03:03:26;1.40;;;1.30;;
13432;SDS011;6789;47.678;9.158;2023-11-19T03:14:19;1.50;;;1.40;;
13432;SDS011;6789;47.678;9.158;2023-11-19T03:19:10;1.50;;;1.40;;
13432;SDS011;6789;47.678;9.158;2023-11-19T03:24:02;1.70;;;1.50;;
13432;SDS011;6789;47.678;9.158;2023-11-19T03:28:54;1.90;;;1.50;;
13432;SDS011;6789;47.678;9.158;2023-11-19T03:33:48;2.37;;;1.73;;
13432;SDS011;6789;47.678;9.158;2023-11-19T03:38:40;3.23;;;1.50;;
13432;SDS011;6789;47.678;9.158;2023-11-19T03:43:33;2.30;;;1.23;;
13432;SDS011;6789;47.678;9.158;2023-11-19T03:48:39;1.90;;;1.40;;
13432;SDS011;6789;47.678;9.158;2023-11-19T03:53:31;1.47;;;1.20;;
13432;SDS011;6789;47.678;9.158;2023-11-19T03:58:23;1.37;;;1.10;;
13432;SDS011;6789;47.678;9.158;2023-11-19T04:03:15;2.20;;;1.43;;
13432;SDS011;6789;47.678;9.158;2023-11-19T04:08:06;3.17;;;1.50;;
13432;SDS011;6789;47.678;9.158;2023-11-19T04:12:58;2.53;;;1.47;;
13432;SDS011;6789;47.678;9.158;2023-11-19T04:17:50;2.00;;;1.70;;
13432;SDS011;6789;47.678;9.158;2023-11-19T04:22:42;2.10;;;1.70;;
13432;SDS011;6789;47.678;9.158;2023-11-19T04:27:34;1.80;;;1.43;;
13432;SDS011;6789;47.678;9.158;2023-11-19T04:32:25;1.90;;;1.70;;
13432;SDS011;6789;47.678;9.158;2023-11-19T04:37:17;4.03;;;1.90;;
13432;SDS011;6789;47.678;9.158;2023-11-19T04:42:10;3.53;;;2.30;;
13432;SDS011;6789;47.678;9.158;2023-11-19T04:47:02;2.70;;;2.20;;
13432;SDS011;6789;47.678;9.158;2023-11-19T04:51:54;1.90;;;1.77;;
13432;SDS011;6789;47.678;9.158;2023-11-19T04:56:45;2.90;;;1.83;;
13432;SDS011;6789;47.678;9.158;2023-11-19T05:01:38;2.77;;;2.00;;
13432;SDS011;6789;47.678;9.158;2023-11-19T05:06:30;3.60;;;2.00;;
13432;SDS011;6789;47.678;9.158;2023-11-19T05:11:23;2.13;;;1.93;;
13432;SDS011;6789;47.678;9.158;2023-11-19T05:16:14;2.10;;;1.90;;
13432;SDS011;6789;47.678;9.158;2023-11-19T05:21:06;3.40;;;1.97;;
13432;SDS011;6789;47.678;9.158;2023-11-19T05:25:58;2.33;;;1.90;;
13432;SDS011;6789;47.678;9.158;2023-11-19T05:30:57;3.10;;;2.70;;
13432;SDS011;6789;47.678;9.158;2023-11-19T05:35:49;2.47;;;1.80;;
13432;SDS011;6789;47.678;9.158;2023-11-19T05:40:41;3.20;;;1.60;;
13432;SDS011;6789;47.678;9.158;2023-11-19T05:45:33;1.57;;;1.47;;
13432;SDS011;6789;47.678;9.158;2023-11-19T05:50:25;1.50;;;1.40;;
13432;SDS011;6789;47.678;9.158;2023-11-19T05:55:16;1.40;;;1.27;;
13432;SDS011;6789;47.678;9.158;2023-11-19T06:00:08;1.63;;;1.23;;
13432;SDS011;6789;47.678;9.158;2023-11-19T06:05:01;1.30;;;1.07;;
13432;SDS011;6789;47.678;9.158;2023-11-19T06:09:53;1.67;;;1.40;;
13432;SDS011;6789;47.678;9.158;2023-11-19T06:14:45;1.27;;;1.10;;
13432;SDS011;6789;47.678;9.158;2023-11-19T06:19:37;2.20;;;1.40;;
13432;SDS011;6789;47.678;9.158;2023-11-19T06:24:29;1.73;;;1.30;;
13432;SDS011;6789;47.678;9.158;2023-11-19T06:29:21;1.17;;;1.00;;
13432;SDS011;6789;47.678;9.158;2023-11-19T06:34:13;2.73;;;1.10;;
13432;SDS011;6789;47.678;9.158;2023-11-19T06:39:05;2.07;;;1.43;;
13432;SDS011;6789;47.678;9.158;2023-11-19T06:43:57;1.27;;;1.17;;
13432;SDS011;6789;47.678;9.158;2023-11-19T06:48:48;1.10;;;1.00;;
13432;SDS011;6789;47.678;9.158;2023-11-19T06:53:42;1.87;;;1.20;;
13432;SDS011;6789;47.678;9.158;2023-11-19T06:58:38;0.80;;;0.80;;
13432;SDS011;6789;47.678;9.158;2023-11-19T07:03:30;1.10;;;1.00;;
13432;SDS011;6789;47.678;9.158;2023-11-19T07:08:22;2.77;;;0.93;;
13432;SDS011;6789;47.678;9.158;2023-11-19T07:13:14;1.90;;;0.90;;
13432;SDS011;6789;47.678;9.158;2023-11-19T07:18:06;1.20;;;1.10;;
13432;SDS011;6789;47.678;9.158;2023-11-19T07:22:58;3.27;;;1.17;;
13432;SDS011;6789;47.678;9.158;2023-11-19T07:27:51;1.43;;;1.13;;
13432;SDS011;6789;47.678;9.158;2023-11-19T07:32:43;2.67;;;1.03;;
13432;SDS011;6789;47.678;9.158;2023-11-19T07:37:35;2.10;;;1.40;;
13432;SDS011;6789;47.678;9.158;2023-11-19T07:42:27;1.40;;;1.00;;
13432;SDS011;6789;47.678;9.158;2023-11-19T07:47:20;0.93;;;0.87;;
13432;SDS011;6789;47.678;9.158;2023-11-19T07:52:14;2.00;;;0.83;;
13432;SDS011;6789;47.678;9.158;2023-11-19T07:57:09;1.10;;;0.73;;
13432;SDS011;6789;47.678;9.158;2023-11-19T08:02:01;0.83;;;0.80;;
13432;SDS011;6789;47.678;9.158;2023-11-19T08:06:53;1.13;;;0.83;;
13432;SDS011;6789;47.678;9.158;2023-11-19T08:11:45;1.00;;;0.80;;
13432;SDS011;6789;47.678;9.158;2023-11-19T08:16:38;1.60;;;0.93;;
13432;SDS011;6789;47.678;9.158;2023-11-19T08:21:30;1.53;;;0.77;;
13432;SDS011;6789;47.678;9.158;2023-11-19T08:26:22;1.03;;;0.87;;
13432;SDS011;6789;47.678;9.158;2023-11-19T08:31:14;1.33;;;0.90;;
13432;SDS011;6789;47.678;9.158;2023-11-19T08:36:06;1.60;;;0.93;;
13432;SDS011;6789;47.678;9.158;2023-11-19T08:40:58;0.70;;;0.60;;
13432;SDS011;6789;47.678;9.158;2023-11-19T08:45:51;1.13;;;0.80;;
13432;SDS011;6789;47.678;9.158;2023-11-19T08:50:43;2.00;;;0.70;;
13432;SDS011;6789;47.678;9.158;2023-11-19T08:55:35;0.70;;;0.67;;
13432;SDS011;6789;47.678;9.158;2023-11-19T09:00:28;0.90;;;0.80;;
13432;SDS011;6789;47.678;9.158;2023-11-19T09:05:20;1.20;;;0.77;;
13432;SDS011;6789;47.678;9.158;2023-11-19T09:10:12;2.20;;;0.80;;
13432;SDS011;6789;47.678;9.158;2023-11-19T09:15:04;0.60;;;0.57;;
13432;SDS011;6789;47.678;9.158;2023-11-19T09:19:57;1.73;;;1.47;;
13432;SDS011;6789;47.678;9.158;2023-11-19T09:24:49;2.47;;;1.40;;
13432;SDS011;6789;47.678;9.158;2023-11-19T09:29:41;1.07;;;0.73;;
13432;SDS011;6789;47.678;9.158;2023-11-19T09:34:34;1.20;;;0.75;;
13432;SDS011;6789;47.678;9.158;2023-11-19T09:39:25;1.33;;;0.73;;
13432;SDS011;6789;47.678;9.158;2023-11-19T09:44:19;0.50;;;0.40;;
13432;SDS011;6789;47.678;9.158;2023-11-19T09:49:11;0.43;;;0.20;;
13432;SDS011;6789;47.678;9.158;2023-11-19T09:54:04;0.47;;;0.40;;
13432;SDS011;6789;47.678;9.158;2023-11-19T09:58:56;0.77;;;0.70;;
13432;SDS011;6789;47.678;9.158;2023-11-19T10:03:48;0.70;;;0.63;;
13432;SDS011;6789;47.678;9.158;2023-11-19T10:08:43;2.30;;;0.63;;
13432;SDS011;6789;47.678;9.158;2023-11-19T10:13:36;1.13;;;0.60;;
13432;SDS011;6789;47.678;9.158;2023-11-19T10:18:29;0.90;;;0.65;;
13432;SDS011;6789;47.678;9.158;2023-11-19T10:23:21;0.68;;;0.65;;
13432;SDS011;6789;47.678;9.158;2023-11-19T10:28:14;0.90;;;0.60;;
13432;SDS011;6789;47.678;9.158;2023-11-19T10:38:02;1.20;;;0.70;;
13432;SDS011;6789;47.678;9.158;2023-11-19T10:43:09;2.75;;;0.80;;
13432;SDS011;6789;47.678;9.158;2023-11-19T10:48:02;2.05;;;0.73;;
13432;SDS011;6789;47.678;9.158;2023-11-19T10:52:58;0.93;;;0.40;;
13432;SDS011;6789;47.678;9.158;2023-11-19T10:57:51;0.40;;;0.40;;
13432;SDS011;6789;47.678;9.158;2023-11-19T11:02:44;0.70;;;0.50;;
13432;SDS011;6789;47.678;9.158;2023-11-19T11:07:41;0.68;;;0.50;;
13432;SDS011;6789;47.678;9.158;2023-11-19T11:12:36;0.85;;;0.30;;
13432;SDS011;6789;47.678;9.158;2023-11-19T11:17:29;0.73;;;0.38;;
13432;SDS011;6789;47.678;9.158;2023-11-19T11:22:24;0.57;;;0.30;;
13432;SDS011;6789;47.678;9.158;2023-11-19T11:27:35;0.98;;;0.70;;
13432;SDS011;6789;47.678;9.158;2023-11-19T11:38:26;0.30;;;0.30;;
13432;SDS011;6789;47.678;9.158;2023-11-19T11:48:52;0.35;;;0.35;;
13432;SDS011;6789;47.678;9.158;2023-11-19T11:53:45;1.20;;;0.30;;
13432;SDS011;6789;47.678;9.158;2023-11-19T11:58:38;0.73;;;0.70;;
13432;SDS011;6789;47.678;9.158;2023-11-19T12:03:37;0.90;;;0.40;;
13432;SDS011;6789;47.678;9.158;2023-11-19T12:08:29;1.83;;;0.80;;
13432;SDS011;6789;47.678;9.158;2023-11-19T12:13:21;0.60;;;0.60;;
13432;SDS011;6789;47.678;9.158;2023-11-19T12:18:13;0.80;;;0.60;;
13432;SDS011;6789;47.678;9.158;2023-11-19T12:23:10;1.05;;;0.60;;
13432;SDS011;6789;47.678;9.158;2023-11-19T12:28:03;2.33;;;0.60;;
13432;SDS011;6789;47.678;9.158;2023-11-19T12:32:56;1.27;;;0.57;;
13432;SDS011;6789;47.678;9.158;2023-11-19T12:37:48;1.60;;;0.85;;
13432;SDS011;6789;47.678;9.158;2023-11-19T12:42:41;1.85;;;0.65;;
13432;SDS011;6789;47.678;9.158;2023-11-19T12:47:38;0.73;;;0.50;;
13432;SDS011;6789;47.678;9.158;2023-11-19T12:52:32;0.95;;;0.70;;
13432;SDS011;6789;47.678;9.158;2023-11-19T12:57:41;0.60;;;0.50;;
13432;SDS011;6789;47.678;9.158;2023-11-19T13:02:46;0.73;;;0.60;;
13432;SDS011;6789;47.678;9.158;2023-11-19T13:07:45;1.48;;;0.82;;
13432;SDS011;6789;47.678;9.158;2023-11-19T13:12:37;0.75;;;0.70;;
13432;SDS011;6789;47.678;9.158;2023-11-19T13:17:28;1.30;;;0.70;;
13432;SDS011;6789;47.678;9.158;2023-11-19T13:22:20;0.75;;;0.60;;
13432;SDS011;6789;47.678;9.158;2023-11-19T13:27:12;1.88;;;0.70;;
13432;SDS011;6789;47.678;9.158;2023-11-19T13:32:05;2.60;;;0.88;;
13432;SDS011;6789;47.678;9.158;2023-11-19T13:36:57;0.93;;;0.90;;
13432;SDS011;6789;47.678;9.158;2023-11-19T13:41:49;0.68;;;0.60;;
13432;SDS011;6789;47.678;9.158;2023-11-19T13:46:41;1.27;;;0.60;;
13432;SDS011;6789;47.678;9.158;2023-11-19T13:51:35;2.15;;;0.60;;
13432;SDS011;6789;47.678;9.158;2023-11-19T13:56:28;0.82;;;0.52;;
13432;SDS011;6789;47.678;9.158;2023-11-19T14:01:20;0.70;;;0.60;;
13432;SDS011;6789;47.678;9.158;2023-11-19T14:06:15;2.75;;;0.70;;
13432;SDS011;6789;47.678;9.158;2023-11-19T14:11:07;2.05;;;0.68;;
13432;SDS011;6789;47.678;9.158;2023-11-19T14:15:59;1.05;;;0.77;;
13432;SDS011;6789;47.678;9.158;2023-11-19T14:20:51;0.50;;;0.50;;
13432;SDS011;6789;47.678;9.158;2023-11-19T14:25:42;0.55;;;0.55;;
13432;SDS011;6789;47.678;9.158;2023-11-19T14:30:34;0.52;;;0.50;;
13432;SDS011;6789;47.678;9.158;2023-11-19T14:35:26;2.00;;;0.90;;
13432;SDS011;6789;47.678;9.158;2023-11-19T14:40:18;0.70;;;0.55;;
13432;SDS011;6789;47.678;9.158;2023-11-19T14:45:10;1.67;;;0.80;;
13432;SDS011;6789;47.678;9.158;2023-11-19T14:50:03;0.50;;;0.50;;
13432;SDS011;6789;47.678;9.158;2023-11-19T14:54:57;2.55;;;0.75;;
13432;SDS011;6789;47.678;9.158;2023-11-19T14:59:49;1.75;;;0.77;;
13432;SDS011;6789;47.678;9.158;2023-11-19T15:04:41;1.63;;;0.70;;
13432;SDS011;6789;47.678;9.158;2023-11-19T15:09:35;1.70;;;1.37;;
13432;SDS011;6789;47.678;9.158;2023-11-19T15:14:27;2.30;;;1.00;;
13432;SDS011;6789;47.678;9.158;2023-11-19T15:19:20;1.00;;;0.70;;
13432;SDS011;6789;47.678;9.158;2023-11-19T15:24:12;1.03;;;0.80;;
13432;SDS011;6789;47.678;9.158;2023-11-19T15:29:04;0.63;;;0.63;;
13432;SDS011;6789;47.678;9.158;2023-11-19T15:33:56;1.80;;;1.00;;
13432;SDS011;6789;47.678;9.158;2023-11-19T15:38:49;1.80;;;1.10;;
13432;SDS011;6789;47.678;9.158;2023-11-19T15:43:44;1.00;;;0.80;;
13432;SDS011;6789;47.678;9.158;2023-11-19T15:48:37;1.50;;;0.80;;
13432;SDS011;6789;47.678;9.158;2023-11-19T15:53:29;0.53;;;0.53;;
13432;SDS011;6789;47.678;9.158;2023-11-19T15:58:24;1.17;;;0.70;;
13432;SDS011;6789;47.678;9.158;2023-11-19T16:03:16;1.37;;;0.70;;
13432;SDS011;6789;47.678;9.158;2023-11-19T16:08:08;1.67;;;0.90;;
13432;SDS011;6789;47.678;9.158;2023-11-19T16:13:01;4.50;;;0.83;;
13432;SDS011;6789;47.678;9.158;2023-11-19T16:17:53;1.15;;;0.73;;
13432;SDS011;6789;47.678;9.158;2023-11-19T16:22:45;0.80;;;0.60;;
13432;SDS011;6789;47.678;9.158;2023-11-19T16:27:37;0.90;;;0.80;;
13432;SDS011;6789;47.678;9.158;2023-11-19T16:32:30;0.80;;;0.70;;
13432;SDS011;6789;47.678;9.158;2023-11-19T16:37:22;1.20;;;0.97;;
13432;SDS011;6789;47.678;9.158;2023-11-19T16:42:14;1.20;;;1.10;;
13432;SDS011;6789;47.678;9.158;2023-11-19T16:47:06;1.17;;;1.00;;
13432;SDS011;6789;47.678;9.158;2023-11-19T16:51:58;1.70;;;1.10;;
13432;SDS011;6789;47.678;9.158;2023-11-19T16:56:52;1.13;;;0.77;;
13432;SDS011;6789;47.678;9.158;2023-11-19T17:01:44;1.17;;;1.00;;
13432;SDS011;6789;47.678;9.158;2023-11-19T17:06:37;0.90;;;0.80;;
13432;SDS011;6789;47.678;9.158;2023-11-19T17:11:30;2.57;;;1.37;;
13432;SDS011;6789;47.678;9.158;2023-11-19T17:16:23;1.17;;;0.97;;
13432;SDS011;6789;47.678;9.158;2023-11-19T17:21:14;1.13;;;0.87;;
13432;SDS011;6789;47.678;9.158;2023-11-19T17:26:06;1.23;;;0.97;;
13432;SDS011;6789;47.678;9.158;2023-11-19T17:30:59;1.77;;;0.90;;
13432;SDS011;6789;47.678;9.158;2023-11-19T17:35:51;0.90;;;0.87;;
13432;SDS011;6789;47.678;9.158;2023-11-19T17:40:43;1.00;;;0.90;;
13432;SDS011;6789;47.678;9.158;2023-11-19T17:45:34;1.53;;;0.60;;
13432;SDS011;6789;47.678;9.158;2023-11-19T17:50:27;1.47;;;0.83;;
13432;SDS011;6789;47.678;9.158;2023-11-19T17:55:19;1.17;;;0.60;;
13432;SDS011;6789;47.678;9.158;2023-11-19T18:00:11;1.47;;;0.80;;
13432;SDS011;6789;47.678;9.158;2023-11-19T18:05:05;0.70;;;0.70;;
13432;SDS011;6789;47.678;9.158;2023-11-19T18:09:58;1.47;;;1.00;;
13432;SDS011;6789;47.678;9.158;2023-11-19T18:14:51;2.00;;;0.83;;
13432;SDS011;6789;47.678;9.158;2023-11-19T18:19:45;1.07;;;0.70;;
13432;SDS011;6789;47.678;9.158;2023-11-19T18:24:36;2.20;;;0.80;;
13432;SDS011;6789;47.678;9.158;2023-11-19T18:29:28;0.70;;;0.70;;
13432;SDS011;6789;47.678;9.158;2023-11-19T18:34:20;0.90;;;0.80;;
13432;SDS011;6789;47.678;9.158;2023-11-19T18:39:12;0.63;;;0.60;;
13432;SDS011;6789;47.678;9.158;2023-11-19T18:44:04;0.60;;;0.60;;
13432;SDS011;6789;47.678;9.158;2023-11-19T18:49:00;0.60;;;0.50;;
13432;SDS011;6789;47.678;9.158;2023-11-19T18:53:53;0.77;;;0.70;;
13432;SDS011;6789;47.678;9.158;2023-11-19T18:58:46;0.50;;;0.50;;
13432;SDS011;6789;47.678;9.158;2023-11-19T19:03:38;1.07;;;0.53;;
13432;SDS011;6789;47.678;9.158;2023-11-19T19:08:31;0.97;;;0.80;;
13432;SDS011;6789;47.678;9.158;2023-11-19T19:13:24;1.47;;;0.50;;
13432;SDS011;6789;47.678;9.158;2023-11-19T19:18:16;1.17;;;0.50;;
13432;SDS011;6789;47.678;9.158;2023-11-19T19:23:08;0.60;;;0.60;;
13432;SDS011;6789;47.678;9.158;2023-11-19T19:28:01;0.60;;;0.60;;
13432;SDS011;6789;47.678;9.158;2023-11-19T19:32:56;1.17;;;0.70;;
13432;SDS011;6789;47.678;9.158;2023-11-19T19:37:48;1.20;;;0.80;;
13432;SDS011;6789;47.678;9.158;2023-11-19T19:42:39;1.50;;;0.80;;
13432;SDS011;6789;47.678;9.158;2023-11-19T19:47:32;0.80;;;0.80;;
13432;SDS011;6789;47.678;9.158;2023-11-19T19:52:24;2.00;;;0.90;;
13432;SDS011;6789;47.678;9.158;2023-11-19T19:57:18;1.67;;;0.93;;
13432;SDS011;6789;47.678;9.158;2023-11-19T20:02:11;1.87;;;0.87;;
13432;SDS011;6789;47.678;9.158;2023-11-19T20:07:03;1.00;;;0.90;;
13432;SDS011;6789;47.678;9.158;2023-11-19T20:11:55;0.83;;;0.70;;
13432;SDS011;6789;47.678;9.158;2023-11-19T20:16:49;1.27;;;0.90;;
13432;SDS011;6789;47.678;9.158;2023-11-19T20:22:01;1.13;;;0.80;;
13432;SDS011;6789;47.678;9.158;2023-11-19T20:26:53;4.20;;;0.97;;
13432;SDS011;6789;47.678;9.158;2023-11-19T20:31:45;1.23;;;0.83;;
13432;SDS011;6789;47.678;9.158;2023-11-19T20:36:36;1.53;;;0.93;;
13432;SDS011;6789;47.678;9.158;2023-11-19T20:41:29;0.80;;;0.70;;
13432;SDS011;6789;47.678;9.158;2023-11-19T20:46:21;2.13;;;1.00;;
13432;SDS011;6789;47.678;9.158;2023-11-19T20:51:17;0.82;;;0.60;;
13432;SDS011;6789;47.678;9.158;2023-11-19T20:56:15;0.80;;;0.77;;
13432;SDS011;6789;47.678;9.158;2023-11-19T21:01:07;0.80;;;0.80;;
13432;SDS011;6789;47.678;9.158;2023-11-19T21:05:58;1.33;;;0.60;;
13432;SDS011;6789;47.678;9.158;2023-11-19T21:10:50;0.70;;;0.70;;
13432;SDS011;6789;47.678;9.158;2023-11-19T21:15:42;1.90;;;0.50;;
13432;SDS011;6789;47.678;9.158;2023-11-19T21:20:48;0.60;;;0.53;;
13432;SDS011;6789;47.678;9.158;2023-11-19T21:25:40;0.50;;;0.50;;
13432;SDS011;6789;47.678;9.158;2023-11-19T21:30:32;0.30;;;0.30;;
13432;SDS011;6789;47.678;9.158;2023-11-19T21:35:24;3.20;;;0.50;;
13432;SDS011;6789;47.678;9.158;2023-11-19T21:40:16;1.83;;;0.70;;
13432;SDS011;6789;47.678;9.158;2023-11-19T21:45:08;0.83;;;0.60;;
13432;SDS011;6789;47.678;9.158;2023-11-19T21:50:00;4.63;;;0.70;;
13432;SDS011;6789;47.678;9.158;2023-11-19T21:54:52;1.67;;;0.63;;
13432;SDS011;6789;47.678;9.158;2023-11-19T21:59:44;1.83;;;0.50;;
13432;SDS011;6789;47.678;9.158;2023-11-19T22:04:36;0.80;;;0.47;;
13432;SDS011;6789;47.678;9.158;2023-11-19T22:09:28;0.50;;;0.30;;
13432;SDS011;6789;47.678;9.158;2023-11-19T22:14:19;1.87;;;0.60;;
13432;SDS011;6789;47.678;9.158;2023-11-19T22:19:13;1.03;;;0.40;;
13432;SDS011;6789;47.678;9.158;2023-11-19T22:24:05;0.30;;;0.30;;
13432;SDS011;6789;47.678;9.158;2023-11-19T22:28:57;0.93;;;0.47;;
13432;SDS011;6789;47.678;9.158;2023-11-19T22:33:50;1.43;;;0.80;;
13432;SDS011;6789;47.678;9.158;2023-11-19T22:38:42;2.07;;;0.63;;
13432;SDS011;6789;47.678;9.158;2023-11-19T22:43:34;2.30;;;0.47;;
13432;SDS011;6789;47.678;9.158;2023-11-19T22:48:26;0.40;;;0.40;;
13432;SDS011;6789;47.678;9.158;2023-11-19T22:53:17;2.13;;;0.67;;
13432;SDS011;6789;47.678;9.158;2023-11-19T22:58:09;0.50;;;0.40;;
13432;SDS011;6789;47.678;9.158;2023-11-19T23:03:01;1.90;;;0.70;;
13432;SDS011;6789;47.678;9.158;2023-11-19T23:08:08;1.10;;;0.50;;
13432;SDS011;6789;47.678;9.158;2023-11-19T23:13:16;1.07;;;0.60;;
13432;SDS011;6789;47.678;9.158;2023-11-19T23:18:09;0.83;;;0.63;;
13432;SDS011;6789;47.678;9.158;2023-11-19T23:23:01;2.10;;;0.77;;
13432;SDS011;6789;47.678;9.158;2023-11-19T23:27:53;0.70;;;0.50;;
13432;SDS011;6789;47.678;9.158;2023-11-19T23:32:45;1.67;;;0.50;;
13432;SDS011;6789;47.678;9.158;2023-11-19T23:37:37;1.63;;;0.50;;
13432;SDS011;6789;47.678;9.158;2023-11-19T23:42:29;1.27;;;0.77;;
13432;SDS011;6789;47.678;9.158;2023-11-19T23:47:21;1.90;;;0.40;;
13432;SDS011;6789;47.678;9.158;2023-11-19T23:52:12;1.20;;;0.57;;
13432;SDS011;6789;47.678;9.158;2023-11-19T23:57:05;1.17;;;0.47;;
